Aviation Digital Data Service (ADDS)

Output produced by METARs form (1317 UTC 19 January 2018)
found at http://aviationweather.gov/adds/metars/
 
UUWW 191300Z 12007MPS 9999 BKN027 M09/M14 Q1012 R06/420245 NOSIG